Time;durP1;ratioP1;P1;durP2;ratioP2;P2;SDS_P1;SDS_P2;PMS_P1;PMS_P2;Temp;Humidity;BMP_temperature;BMP_pressure;BME280_temperature;BME280_humidity;BME280_pressure;Samples;Min_cycle;Max_cycle;Signal;HPM_P1;HPM_P2
2023/08/29 00:00:21;;;;;;;3.50;3.28;;;;;;;;;;4979223;28;20074;-86
2023/08/29 00:02:48;;;;;;;3.55;2.90;;;;;;;;;;4979031;28;20127;-85
2023/08/29 00:05:16;;;;;;;4.50;3.20;;;;;;;;;;4979087;28;20054;-87
2023/08/29 00:07:43;;;;;;;5.43;3.60;;;;;;;;;;4978786;28;20046;-86
2023/08/29 00:10:10;;;;;;;3.58;3.38;;;;;;;;;;4979047;28;20065;-85
2023/08/29 00:12:41;;;;;;;3.22;3.08;;;;;;;;;;4978880;28;20046;-85
2023/08/29 00:15:09;;;;;;;3.03;2.83;;;;;;;;;;4978786;28;20056;-86
2023/08/29 00:17:37;;;;;;;3.42;3.20;;;;;;;;;;4978574;28;20050;-85
2023/08/29 00:20:04;;;;;;;3.42;3.17;;;;;;;;;;4995482;28;20046;-86
2023/08/29 00:22:32;;;;;;;3.13;2.92;;;;;;;;;;4978422;28;20506;-85
2023/08/29 00:24:59;;;;;;;2.95;2.75;;;;;;;;;;4978370;28;20121;-86
2023/08/29 00:27:26;;;;;;;3.20;2.95;;;;;;;;;;4995490;28;20102;-85
2023/08/29 00:29:53;;;;;;;5.22;3.30;;;;;;;;;;4978713;28;20507;-86
2023/08/29 00:32:21;;;;;;;3.10;2.85;;;;;;;;;;4995702;28;20093;-86
2023/08/29 00:34:48;;;;;;;3.30;3.13;;;;;;;;;;4978427;28;20101;-85
2023/08/29 00:37:16;;;;;;;3.40;3.10;;;;;;;;;;4977863;28;20105;-86
2023/08/29 00:39:43;;;;;;;4.38;3.10;;;;;;;;;;4995175;28;20490;-86
2023/08/29 00:42:10;;;;;;;3.50;3.33;;;;;;;;;;4978136;28;20506;-86
2023/08/29 00:44:38;;;;;;;3.28;2.95;;;;;;;;;;4978486;28;20207;-85
2023/08/29 00:47:05;;;;;;;3.92;3.60;;;;;;;;;;4995096;28;20070;-85
2023/08/29 00:49:36;;;;;;;3.75;3.55;;;;;;;;;;4995320;28;20590;-86
2023/08/29 00:52:05;;;;;;;3.53;3.33;;;;;;;;;;4978060;28;20054;-85
2023/08/29 00:54:33;;;;;;;3.60;3.40;;;;;;;;;;4977649;28;20057;-86
2023/08/29 00:57:00;;;;;;;3.53;3.25;;;;;;;;;;4994842;28;20046;-86
2023/08/29 00:59:27;;;;;;;3.78;3.53;;;;;;;;;;4978006;28;20054;-85
2023/08/29 01:01:55;;;;;;;3.90;3.50;;;;;;;;;;4977672;28;20050;-85
2023/08/29 01:04:23;;;;;;;4.72;3.40;;;;;;;;;;4977924;28;20046;-85
2023/08/29 01:06:50;;;;;;;3.90;3.58;;;;;;;;;;4977884;28;20047;-86
2023/08/29 01:09:18;;;;;;;4.80;3.45;;;;;;;;;;4977888;28;20458;-85
2023/08/29 01:11:52;;;;;;;3.72;3.30;;;;;;;;;;4977969;28;20088;-85
2023/08/29 01:14:41;;;;;;;5.10;3.13;;;;;;;;;;4995174;28;20046;-86
2023/08/29 01:17:17;;;;;;;3.55;3.08;;;;;;;;;;4977643;28;20046;-85
2023/08/29 01:19:48;;;;;;;3.85;3.55;;;;;;;;;;4978064;28;20050;-86
2023/08/29 01:22:15;;;;;;;4.13;3.60;;;;;;;;;;5001470;28;20451;-86
2023/08/29 01:24:50;;;;;;;3.55;3.25;;;;;;;;;;4988243;28;20053;-85
2023/08/29 01:27:19;;;;;;;4.05;3.45;;;;;;;;;;4979549;28;20050;-86
2023/08/29 01:29:46;;;;;;;4.03;3.70;;;;;;;;;;4978065;28;20055;-85
2023/08/29 01:32:14;;;;;;;3.75;3.55;;;;;;;;;;4977094;28;20077;-86
2023/08/29 01:34:43;;;;;;;3.60;3.40;;;;;;;;;;4994617;28;20126;-86
2023/08/29 01:37:10;;;;;;;3.90;3.60;;;;;;;;;;4976249;28;20053;-86
2023/08/29 01:39:38;;;;;;;4.55;3.80;;;;;;;;;;4976457;28;20104;-86
2023/08/29 01:42:06;;;;;;;4.30;4.00;;;;;;;;;;4993490;28;20125;-85
2023/08/29 01:44:36;;;;;;;3.88;3.65;;;;;;;;;;4994739;28;20477;-86
2023/08/29 01:47:03;;;;;;;4.10;3.83;;;;;;;;;;4993411;28;20042;-85
2023/08/29 01:49:34;;;;;;;4.00;3.60;;;;;;;;;;4977306;28;20058;-86
2023/08/29 01:52:01;;;;;;;6.88;3.80;;;;;;;;;;4977271;28;20081;-85
2023/08/29 01:54:28;;;;;;;7.80;4.00;;;;;;;;;;4977280;28;20109;-85
2023/08/29 01:56:57;;;;;;;4.22;3.80;;;;;;;;;;4977264;28;20527;-85
2023/08/29 01:59:24;;;;;;;4.63;4.03;;;;;;;;;;4977319;28;20096;-85
2023/08/29 02:01:52;;;;;;;4.05;3.45;;;;;;;;;;4994023;28;20062;-85
2023/08/29 02:04:19;;;;;;;3.47;3.28;;;;;;;;;;4996257;28;20046;-86
2023/08/29 02:06:46;;;;;;;3.55;3.25;;;;;;;;;;4976975;28;20062;-85
2023/08/29 02:09:14;;;;;;;3.97;3.67;;;;;;;;;;4994032;28;20460;-86
2023/08/29 02:11:41;;;;;;;3.63;3.30;;;;;;;;;;4976619;28;20529;-85
2023/08/29 02:14:10;;;;;;;4.13;3.67;;;;;;;;;;4976866;28;20046;-86
2023/08/29 02:16:38;;;;;;;3.92;3.65;;;;;;;;;;4976918;28;20274;-85
2023/08/29 02:19:06;;;;;;;4.10;3.85;;;;;;;;;;4976442;28;20144;-85
2023/08/29 02:21:33;;;;;;;3.92;3.70;;;;;;;;;;4993912;28;20050;-85
2023/08/29 02:24:05;;;;;;;4.80;3.47;;;;;;;;;;4976806;28;20062;-85
2023/08/29 02:26:32;;;;;;;4.50;4.15;;;;;;;;;;4993938;28;20053;-86
2023/08/29 02:28:59;;;;;;;4.15;3.92;;;;;;;;;;4976575;28;20470;-86
2023/08/29 02:31:27;;;;;;;5.40;4.03;;;;;;;;;;4976823;28;20050;-86
2023/08/29 02:33:54;;;;;;;4.22;3.92;;;;;;;;;;4976556;28;20057;-86
2023/08/29 02:36:23;;;;;;;4.38;4.00;;;;;;;;;;4976875;28;20468;-87
2023/08/29 02:38:51;;;;;;;6.65;5.28;;;;;;;;;;4993780;28;20432;-86
2023/08/29 02:41:18;;;;;;;8.38;5.28;;;;;;;;;;4976708;28;20042;-86
2023/08/29 02:43:45;;;;;;;6.45;5.53;;;;;;;;;;4979294;28;20062;-87
2023/08/29 02:46:13;;;;;;;9.07;7.07;;;;;;;;;;4980750;28;20104;-86
2023/08/29 02:48:40;;;;;;;7.30;6.70;;;;;;;;;;4998112;28;20050;-86
2023/08/29 02:51:07;;;;;;;6.63;6.13;;;;;;;;;;4997973;28;20078;-87
2023/08/29 02:53:34;;;;;;;7.18;6.07;;;;;;;;;;4981149;28;20089;-87
2023/08/29 02:56:02;;;;;;;7.43;6.72;;;;;;;;;;4997908;28;20479;-87
2023/08/29 02:58:29;;;;;;;9.88;7.18;;;;;;;;;;4980582;28;20050;-88
2023/08/29 03:01:03;;;;;;;9.20;8.23;;;;;;;;;;4981016;28;20129;-88
2023/08/29 03:03:30;;;;;;;7.55;6.85;;;;;;;;;;4980930;28;20056;-88
2023/08/29 03:05:58;;;;;;;7.95;7.25;;;;;;;;;;4997645;28;20126;-88
2023/08/29 03:08:26;;;;;;;7.90;7.10;;;;;;;;;;4980748;28;20082;-88
2023/08/29 03:10:53;;;;;;;8.20;7.43;;;;;;;;;;4980681;28;20054;-88
2023/08/29 03:13:21;;;;;;;10.32;9.02;;;;;;;;;;4980700;28;20051;-88
2023/08/29 03:15:48;;;;;;;10.55;9.20;;;;;;;;;;4997659;28;20429;-89
2023/08/29 03:18:16;;;;;;;9.27;8.48;;;;;;;;;;4980664;28;20406;-88
2023/08/29 03:20:44;;;;;;;10.35;9.32;;;;;;;;;;4980786;28;20261;-89
2023/08/29 03:23:11;;;;;;;12.10;10.30;;;;;;;;;;4980512;28;20106;-89
2023/08/29 03:25:39;;;;;;;9.45;8.65;;;;;;;;;;4980656;28;20081;-90
2023/08/29 03:28:06;;;;;;;14.88;11.73;;;;;;;;;;4980552;28;20046;-90
2023/08/29 03:30:34;;;;;;;12.27;10.45;;;;;;;;;;4997725;28;20506;-90
2023/08/29 03:33:02;;;;;;;12.25;10.70;;;;;;;;;;4981098;28;20664;-91
2023/08/29 03:35:30;;;;;;;12.88;10.02;;;;;;;;;;4980629;28;20046;-90
2023/08/29 03:37:57;;;;;;;11.90;10.30;;;;;;;;;;4980251;28;20057;-92
2023/08/29 03:40:25;;;;;;;11.93;9.95;;;;;;;;;;4980509;28;20101;-92
2023/08/29 03:42:52;;;;;;;15.45;11.07;;;;;;;;;;4980176;28;20081;-90
2023/08/29 03:45:19;;;;;;;12.77;11.48;;;;;;;;;;4980213;28;20105;-92
2023/08/29 03:47:48;;;;;;;11.95;10.80;;;;;;;;;;4980119;28;20108;-92
2023/08/29 03:50:15;;;;;;;14.57;10.52;;;;;;;;;;4980076;28;20046;-92
2023/08/29 03:52:46;;;;;;;13.27;11.95;;;;;;;;;;4997121;28;20090;-91
2023/08/29 03:55:14;;;;;;;15.15;12.68;;;;;;;;;;4979382;28;20086;-91
2023/08/29 03:57:41;;;;;;;13.73;12.40;;;;;;;;;;4979709;28;20046;-91
2023/08/29 04:00:11;;;;;;;15.10;13.25;;;;;;;;;;4980364;28;20482;-91
2023/08/29 04:02:39;;;;;;;14.52;13.02;;;;;;;;;;4980065;28;20050;-91
2023/08/29 04:05:17;;;;;;;15.32;13.50;;;;;;;;;;4980130;28;20410;-90
2023/08/29 04:07:45;;;;;;;15.80;13.93;;;;;;;;;;4980093;28;20438;-90
2023/08/29 04:10:13;;;;;;;14.75;13.18;;;;;;;;;;4979728;28;20042;-91
2023/08/29 04:12:40;;;;;;;13.95;12.50;;;;;;;;;;4980694;28;20058;-91
2023/08/29 04:15:08;;;;;;;16.75;14.85;;;;;;;;;;4980918;28;20042;-91
2023/08/29 04:17:35;;;;;;;14.43;12.93;;;;;;;;;;4993489;28;20050;-89
2023/08/29 04:20:08;;;;;;;15.25;13.70;;;;;;;;;;5003049;28;20061;-90
2023/08/29 04:22:35;;;;;;;21.33;15.55;;;;;;;;;;4984886;28;20109;-90
2023/08/29 04:25:06;;;;;;;16.42;14.50;;;;;;;;;;4980709;28;20395;-92
2023/08/29 04:27:35;;;;;;;16.25;14.65;;;;;;;;;;4979700;28;20097;-91
2023/08/29 04:30:02;;;;;;;16.40;13.52;;;;;;;;;;4979411;28;20047;-91
2023/08/29 04:32:34;;;;;;;17.08;14.18;;;;;;;;;;4979492;28;20046;-90
2023/08/29 04:35:02;;;;;;;16.77;13.85;;;;;;;;;;4979356;28;20061;-91
2023/08/29 04:37:30;;;;;;;20.45;17.10;;;;;;;;;;4979190;28;20491;-92
2023/08/29 04:39:57;;;;;;;19.10;16.73;;;;;;;;;;4979732;28;20128;-91
2023/08/29 04:42:24;;;;;;;16.00;14.40;;;;;;;;;;4979042;28;20058;-91
2023/08/29 04:44:54;;;;;;;18.08;16.10;;;;;;;;;;4979453;28;20089;-92
2023/08/29 04:47:21;;;;;;;17.90;14.95;;;;;;;;;;4979373;28;20046;-91
2023/08/29 04:49:49;;;;;;;16.77;15.02;;;;;;;;;;4979233;28;20442;-91
2023/08/29 04:52:16;;;;;;;19.33;16.77;;;;;;;;;;4979191;28;20078;-91
2023/08/29 04:54:43;;;;;;;22.20;17.58;;;;;;;;;;4979041;28;20073;-91
2023/08/29 04:57:11;;;;;;;17.50;15.70;;;;;;;;;;4979138;28;20054;-90
2023/08/29 04:59:38;;;;;;;18.42;16.50;;;;;;;;;;4978615;28;20054;-92
2023/08/29 05:02:05;;;;;;;19.45;17.02;;;;;;;;;;4978942;28;20081;-92
2023/08/29 05:04:32;;;;;;;19.70;17.00;;;;;;;;;;4978863;28;20078;-92
2023/08/29 05:07:00;;;;;;;22.00;18.85;;;;;;;;;;4977786;28;20078;-92
2023/08/29 05:09:27;;;;;;;28.52;20.80;;;;;;;;;;4978858;28;20061;-91
2023/08/29 05:11:54;;;;;;;24.98;20.95;;;;;;;;;;4979647;28;20050;-92
2023/08/29 05:14:22;;;;;;;35.70;23.15;;;;;;;;;;4978874;28;20046;-90
2023/08/29 05:16:49;;;;;;;23.55;20.80;;;;;;;;;;4978868;28;20538;-91
2023/08/29 05:19:16;;;;;;;21.65;19.13;;;;;;;;;;4978610;28;20054;-92
2023/08/29 05:21:44;;;;;;;24.02;21.55;;;;;;;;;;4978525;28;20073;-92
2023/08/29 05:24:11;;;;;;;22.58;20.17;;;;;;;;;;4978590;28;20487;-91
2023/08/29 05:26:38;;;;;;;25.35;22.25;;;;;;;;;;4978792;28;20082;-92
2023/08/29 05:29:05;;;;;;;26.80;23.27;;;;;;;;;;4978431;28;20137;-92
2023/08/29 05:31:33;;;;;;;34.08;23.42;;;;;;;;;;4977934;28;20058;-91
2023/08/29 05:34:00;;;;;;;23.20;20.70;;;;;;;;;;4978324;28;20046;-92
2023/08/29 05:36:27;;;;;;;26.23;21.80;;;;;;;;;;4978271;28;20294;-93
2023/08/29 05:38:55;;;;;;;31.77;23.88;;;;;;;;;;4978228;28;20096;-92
2023/08/29 05:41:22;;;;;;;20.98;18.88;;;;;;;;;;4978270;28;20054;-93
2023/08/29 05:43:49;;;;;;;26.77;21.70;;;;;;;;;;4977754;28;20062;-93
2023/08/29 05:46:16;;;;;;;22.73;19.50;;;;;;;;;;4978224;28;20085;-93
2023/08/29 05:48:44;;;;;;;22.73;20.27;;;;;;;;;;4978155;28;20050;-92
2023/08/29 05:51:11;;;;;;;17.90;16.30;;;;;;;;;;4978184;28;20058;-90
2023/08/29 05:53:38;;;;;;;16.55;14.45;;;;;;;;;;4977881;28;20057;-91
2023/08/29 05:56:05;;;;;;;16.58;15.00;;;;;;;;;;4978091;28;20042;-92
2023/08/29 05:58:33;;;;;;;20.77;18.35;;;;;;;;;;4977891;28;20050;-93
2023/08/29 06:01:00;;;;;;;18.30;15.85;;;;;;;;;;4977791;28;20380;-92
2023/08/29 06:03:27;;;;;;;16.70;15.15;;;;;;;;;;4977738;28;20054;-93
2023/08/29 06:05:55;;;;;;;21.25;19.02;;;;;;;;;;4977711;28;20081;-92
2023/08/29 06:08:22;;;;;;;17.77;15.98;;;;;;;;;;4977955;28;20117;-91
2023/08/29 06:10:50;;;;;;;17.58;15.75;;;;;;;;;;4977640;28;20553;-91
2023/08/29 06:13:17;;;;;;;19.08;16.60;;;;;;;;;;4977630;28;20062;-91
2023/08/29 06:15:44;;;;;;;15.40;13.95;;;;;;;;;;4977627;28;20073;-90
2023/08/29 06:18:12;;;;;;;18.58;16.75;;;;;;;;;;4977294;28;20046;-92
2023/08/29 06:20:39;;;;;;;17.75;15.95;;;;;;;;;;4977663;28;20047;-91
2023/08/29 06:23:06;;;;;;;17.40;15.80;;;;;;;;;;4977731;28;20081;-91
2023/08/29 06:25:33;;;;;;;17.48;15.85;;;;;;;;;;4977774;28;20462;-90
2023/08/29 06:28:01;;;;;;;17.83;15.75;;;;;;;;;;4977372;28;20109;-90
2023/08/29 06:30:29;;;;;;;18.75;16.85;;;;;;;;;;4977474;28;20065;-91
2023/08/29 06:32:56;;;;;;;16.30;14.88;;;;;;;;;;4977595;28;20070;-92
2023/08/29 06:35:23;;;;;;;15.98;14.40;;;;;;;;;;4977714;28;20056;-91
2023/08/29 06:37:50;;;;;;;16.88;15.15;;;;;;;;;;4977512;28;20483;-92
2023/08/29 06:40:18;;;;;;;17.83;15.25;;;;;;;;;;4977187;28;20050;-92
2023/08/29 06:42:45;;;;;;;16.65;14.43;;;;;;;;;;4977378;28;20046;-91
2023/08/29 06:45:12;;;;;;;17.45;15.73;;;;;;;;;;4977407;28;20478;-93
2023/08/29 06:47:40;;;;;;;16.42;14.80;;;;;;;;;;4977610;28;20479;-91
2023/08/29 06:50:08;;;;;;;14.07;12.77;;;;;;;;;;4977405;28;20065;-91
2023/08/29 06:52:35;;;;;;;15.13;13.63;;;;;;;;;;4977543;28;20083;-91
2023/08/29 06:55:03;;;;;;;17.17;15.55;;;;;;;;;;4977462;28;20490;-88
2023/08/29 06:57:30;;;;;;;13.60;12.30;;;;;;;;;;4977430;28;20081;-90
2023/08/29 06:59:57;;;;;;;15.45;13.25;;;;;;;;;;4976987;28;20093;-90
2023/08/29 07:02:25;;;;;;;14.75;13.20;;;;;;;;;;4977361;28;20096;-93
2023/08/29 07:04:53;;;;;;;15.07;13.77;;;;;;;;;;4977242;28;20056;-90
2023/08/29 07:07:20;;;;;;;14.02;12.68;;;;;;;;;;4977896;28;20514;-91
2023/08/29 07:09:47;;;;;;;14.55;12.80;;;;;;;;;;4977880;28;20054;-90
2023/08/29 07:12:14;;;;;;;16.52;14.88;;;;;;;;;;5001868;28;20084;-90
2023/08/29 07:14:42;;;;;;;15.90;13.60;;;;;;;;;;4998963;28;20073;-92
2023/08/29 07:17:09;;;;;;;17.63;15.38;;;;;;;;;;4986705;28;20057;-90
2023/08/29 07:19:38;;;;;;;13.80;12.60;;;;;;;;;;4979147;28;20060;-92
2023/08/29 07:22:06;;;;;;;14.02;12.57;;;;;;;;;;4977102;28;20438;-91
2023/08/29 07:24:50;;;;;;;14.30;13.02;;;;;;;;;;4979478;28;20050;-92
2023/08/29 07:27:17;;;;;;;11.88;10.98;;;;;;;;;;4977162;28;20050;-92
2023/08/29 07:29:45;;;;;;;14.07;11.45;;;;;;;;;;4977901;28;20050;-91
2023/08/29 07:32:12;;;;;;;14.13;10.32;;;;;;;;;;4980672;28;20482;-91
2023/08/29 07:34:39;;;;;;;10.40;9.50;;;;;;;;;;4980515;28;20050;-92
2023/08/29 07:37:08;;;;;;;10.07;9.07;;;;;;;;;;4980563;28;20053;-91
2023/08/29 07:39:35;;;;;;;9.50;8.70;;;;;;;;;;4980428;28;20545;-92
2023/08/29 07:42:03;;;;;;;10.57;9.48;;;;;;;;;;4980195;28;20086;-91
2023/08/29 07:44:31;;;;;;;11.48;10.35;;;;;;;;;;4980551;28;20054;-90
2023/08/29 07:46:58;;;;;;;10.88;10.07;;;;;;;;;;4980280;28;20526;-90
2023/08/29 07:49:28;;;;;;;11.85;10.95;;;;;;;;;;4980821;28;20181;-92
2023/08/29 07:51:56;;;;;;;14.02;11.02;;;;;;;;;;4980249;28;20054;-92
2023/08/29 07:54:23;;;;;;;10.65;9.85;;;;;;;;;;4980100;28;20061;-92
2023/08/29 07:56:50;;;;;;;11.68;10.68;;;;;;;;;;4979854;28;20077;-91
2023/08/29 07:59:17;;;;;;;11.60;10.65;;;;;;;;;;4979998;28;20066;-92
2023/08/29 08:01:46;;;;;;;10.85;10.02;;;;;;;;;;4979988;28;20058;-91
2023/08/29 08:04:14;;;;;;;11.73;10.85;;;;;;;;;;4980019;28;20141;-92
2023/08/29 08:06:41;;;;;;;10.38;9.38;;;;;;;;;;4979962;28;20050;-91
2023/08/29 08:09:09;;;;;;;11.57;10.68;;;;;;;;;;4980192;28;20077;-92
2023/08/29 08:11:36;;;;;;;11.60;10.73;;;;;;;;;;4979997;28;20050;-90
2023/08/29 08:14:03;;;;;;;10.43;9.60;;;;;;;;;;4979764;28;20046;-92
2023/08/29 08:16:30;;;;;;;11.02;10.02;;;;;;;;;;4979929;28;20487;-91
2023/08/29 08:18:58;;;;;;;9.20;8.38;;;;;;;;;;4979452;28;20402;-92
2023/08/29 08:21:25;;;;;;;7.82;7.03;;;;;;;;;;4979808;28;20046;-94
2023/08/29 08:23:53;;;;;;;6.40;6.03;;;;;;;;;;4979765;28;20050;-92
2023/08/29 08:26:20;;;;;;;7.45;6.95;;;;;;;;;;4980173;28;20046;-91
2023/08/29 08:28:47;;;;;;;7.15;6.55;;;;;;;;;;4979440;28;20117;-92
2023/08/29 08:31:14;;;;;;;6.65;6.05;;;;;;;;;;4979481;28;20081;-92
2023/08/29 08:33:41;;;;;;;6.85;6.18;;;;;;;;;;4979608;28;20050;-90
2023/08/29 08:36:09;;;;;;;6.20;5.70;;;;;;;;;;4979594;28;20073;-94
2023/08/29 08:38:36;;;;;;;5.65;5.35;;;;;;;;;;4979587;28;20466;-90
2023/08/29 08:41:04;;;;;;;5.55;5.15;;;;;;;;;;4979239;28;20133;-90
2023/08/29 08:43:32;;;;;;;5.90;5.43;;;;;;;;;;4978854;28;20055;-91
2023/08/29 08:45:59;;;;;;;5.38;4.97;;;;;;;;;;4979094;28;20054;-91
2023/08/29 08:48:28;;;;;;;7.07;6.10;;;;;;;;;;4979223;28;20054;-91
2023/08/29 08:50:56;;;;;;;5.70;5.15;;;;;;;;;;4979173;28;20054;-91
2023/08/29 08:53:24;;;;;;;5.47;5.05;;;;;;;;;;4979442;28;20066;-91
2023/08/29 08:55:52;;;;;;;4.93;4.63;;;;;;;;;;4979246;28;20046;-92
2023/08/29 08:58:19;;;;;;;5.72;5.32;;;;;;;;;;4979251;28;20058;-91
2023/08/29 09:00:47;;;;;;;6.40;5.93;;;;;;;;;;4978686;28;20101;-90
2023/08/29 09:03:14;;;;;;;6.78;6.25;;;;;;;;;;4978983;28;20050;-90
2023/08/29 09:05:42;;;;;;;5.55;5.15;;;;;;;;;;4978878;28;20065;-91
2023/08/29 09:08:09;;;;;;;5.43;5.13;;;;;;;;;;4979024;28;20145;-91
2023/08/29 09:10:40;;;;;;;6.13;5.38;;;;;;;;;;4978819;28;20064;-91
2023/08/29 09:13:15;;;;;;;4.68;4.28;;;;;;;;;;4978866;28;20529;-90
2023/08/29 09:15:42;;;;;;;5.18;4.75;;;;;;;;;;4978884;28;20070;-92
2023/08/29 09:18:13;;;;;;;4.80;4.50;;;;;;;;;;4978851;28;20050;-92
2023/08/29 09:20:43;;;;;;;6.95;5.55;;;;;;;;;;4978219;28;20062;-91
2023/08/29 09:23:23;;;;;;;9.23;6.05;;;;;;;;;;4978911;28;20046;-92
2023/08/29 09:26:00;;;;;;;4.40;4.10;;;;;;;;;;4978748;28;20062;-92
2023/08/29 09:28:28;;;;;;;3.28;2.97;;;;;;;;;;4978671;28;20054;-91
2023/08/29 09:31:04;;;;;;;3.10;2.90;;;;;;;;;;4978551;28;20407;-90
2023/08/29 09:33:31;;;;;;;3.13;2.50;;;;;;;;;;4978513;28;20054;-91
2023/08/29 09:36:01;;;;;;;3.60;2.55;;;;;;;;;;4978577;28;20073;-91
2023/08/29 09:38:32;;;;;;;4.95;2.45;;;;;;;;;;4978414;28;20050;-90
2023/08/29 09:40:59;;;;;;;2.90;2.60;;;;;;;;;;4978055;28;20655;-90
2023/08/29 09:43:27;;;;;;;2.15;2.05;;;;;;;;;;4978242;28;20113;-88
2023/08/29 09:45:55;;;;;;;2.97;1.63;;;;;;;;;;4978219;28;20415;-90
2023/08/29 09:48:23;;;;;;;2.20;2.10;;;;;;;;;;4978185;28;20050;-90
2023/08/29 09:50:57;;;;;;;2.83;2.00;;;;;;;;;;4995213;28;20054;-90
2023/08/29 09:53:24;;;;;;;2.15;2.05;;;;;;;;;;4977657;28;20054;-90
2023/08/29 09:55:57;;;;;;;4.30;1.75;;;;;;;;;;4995151;28;20051;-91
2023/08/29 09:58:25;;;;;;;3.95;1.80;;;;;;;;;;4995057;28;20112;-89
2023/08/29 10:00:53;;;;;;;2.00;1.52;;;;;;;;;;4978244;28;20050;-89
2023/08/29 10:03:20;;;;;;;4.88;1.90;;;;;;;;;;4978733;28;20054;-90
2023/08/29 10:05:49;;;;;;;2.72;1.90;;;;;;;;;;4979837;28;20128;-89
2023/08/29 10:08:18;;;;;;;3.05;1.83;;;;;;;;;;5013844;28;20046;-89
2023/08/29 10:10:47;;;;;;;2.05;1.48;;;;;;;;;;4994064;28;20046;-89
2023/08/29 10:13:14;;;;;;;1.70;1.50;;;;;;;;;;4977730;28;20557;-88
2023/08/29 10:15:42;;;;;;;2.58;1.33;;;;;;;;;;4977782;28;20050;-89
2023/08/29 10:18:11;;;;;;;2.30;1.20;;;;;;;;;;4977786;28;20058;-88
2023/08/29 10:20:43;;;;;;;2.83;1.30;;;;;;;;;;4977534;28;20507;-88
2023/08/29 10:23:11;;;;;;;1.77;1.30;;;;;;;;;;4977773;28;20058;-89
2023/08/29 10:25:39;;;;;;;1.42;1.33;;;;;;;;;;4977715;28;20054;-89
2023/08/29 10:28:10;;;;;;;1.20;1.08;;;;;;;;;;4977692;28;20105;-88
2023/08/29 10:30:41;;;;;;;1.77;0.80;;;;;;;;;;4994511;28;20059;-88
2023/08/29 10:33:09;;;;;;;2.25;1.30;;;;;;;;;;4977592;28;20129;-88
2023/08/29 10:35:36;;;;;;;0.95;0.95;;;;;;;;;;4994377;28;20054;-88
2023/08/29 10:38:13;;;;;;;1.95;0.77;;;;;;;;;;4977284;28;20046;-88
2023/08/29 10:40:42;;;;;;;2.40;0.90;;;;;;;;;;4994186;28;20050;-87
2023/08/29 10:43:18;;;;;;;0.60;0.60;;;;;;;;;;4977030;28;20093;-86
2023/08/29 10:45:56;;;;;;;1.20;0.80;;;;;;;;;;4977276;28;20046;-89
2023/08/29 10:48:30;;;;;;;0.77;0.68;;;;;;;;;;4994334;28;20101;-88
2023/08/29 10:51:09;;;;;;;1.38;0.75;;;;;;;;;;4977121;28;20411;-89
2023/08/29 10:53:43;;;;;;;0.63;0.52;;;;;;;;;;4977034;28;20046;-89
2023/08/29 10:56:10;;;;;;;0.60;0.60;;;;;;;;;;4977505;28;20051;-87
2023/08/29 10:58:44;;;;;;;1.23;0.60;;;;;;;;;;4994581;28;20491;-90
2023/08/29 11:01:27;;;;;;;0.75;0.75;;;;;;;;;;4977672;28;20150;-88
2023/08/29 11:03:55;;;;;;;0.60;0.60;;;;;;;;;;4993895;28;20042;-87
2023/08/29 11:06:23;;;;;;;3.15;0.63;;;;;;;;;;4980823;28;20445;-87
2023/08/29 11:08:51;;;;;;;2.38;0.85;;;;;;;;;;4980680;28;20050;-91
2023/08/29 11:11:22;;;;;;;0.60;0.60;;;;;;;;;;4988944;28;20046;-87
2023/08/29 11:14:08;;;;;;;0.40;0.30;;;;;;;;;;4980947;28;20129;-87
2023/08/29 11:16:37;;;;;;;2.72;0.70;;;;;;;;;;4972110;28;20074;-88
2023/08/29 11:19:11;;;;;;;1.38;0.50;;;;;;;;;;4989236;28;20132;-88
2023/08/29 11:21:39;;;;;;;1.02;0.60;;;;;;;;;;4980432;28;20053;-87
2023/08/29 11:24:07;;;;;;;2.20;0.73;;;;;;;;;;4997379;28;20073;-87
2023/08/29 11:26:42;;;;;;;2.05;0.70;;;;;;;;;;4979488;28;20047;-89
2023/08/29 11:29:09;;;;;;;0.63;0.60;;;;;;;;;;4973604;28;20478;-88
2023/08/29 11:31:40;;;;;;;0.82;0.60;;;;;;;;;;4980150;28;20050;-88
2023/08/29 11:34:14;;;;;;;2.80;0.73;;;;;;;;;;4980109;28;20043;-88
2023/08/29 11:36:44;;;;;;;2.67;0.70;;;;;;;;;;4979805;28;20054;-87
2023/08/29 11:39:12;;;;;;;2.88;0.65;;;;;;;;;;4980054;28;20046;-89
2023/08/29 11:41:41;;;;;;;3.90;0.70;;;;;;;;;;4980029;28;20060;-89
2023/08/29 11:44:18;;;;;;;3.45;0.50;;;;;;;;;;4980096;28;20073;-88
2023/08/29 11:47:05;;;;;;;0.98;0.40;;;;;;;;;;4983439;28;20050;-88
2023/08/29 11:49:33;;;;;;;2.25;0.50;;;;;;;;;;4979950;28;20049;-88
2023/08/29 11:52:00;;;;;;;3.90;0.50;;;;;;;;;;4979551;28;20054;-91
2023/08/29 11:54:41;;;;;;;1.30;0.40;;;;;;;;;;4980040;28;20129;-90
2023/08/29 11:57:10;;;;;;;0.43;0.30;;;;;;;;;;4996790;28;20054;-88
2023/08/29 11:59:42;;;;;;;1.75;0.40;;;;;;;;;;4979625;28;20081;-89
2023/08/29 12:02:13;;;;;;;0.55;0.45;;;;;;;;;;4979451;28;20074;-88
2023/08/29 12:04:45;;;;;;;1.15;0.60;;;;;;;;;;4996913;28;20402;-93
2023/08/29 12:07:13;;;;;;;1.55;0.40;;;;;;;;;;4979502;28;20046;-89
2023/08/29 12:09:42;;;;;;;0.40;0.38;;;;;;;;;;4979548;28;20054;-90
2023/08/29 12:12:26;;;;;;;2.03;0.40;;;;;;;;;;4979359;28;20060;-89
2023/08/29 12:14:54;;;;;;;1.58;0.40;;;;;;;;;;4996454;28;20050;-89
2023/08/29 12:17:22;;;;;;;1.15;0.40;;;;;;;;;;4996365;28;20587;-87
2023/08/29 12:19:50;;;;;;;0.77;0.40;;;;;;;;;;4979563;28;20054;-88
2023/08/29 12:22:21;;;;;;;1.08;0.50;;;;;;;;;;4979257;28;20132;-90
2023/08/29 12:24:58;;;;;;;0.75;0.40;;;;;;;;;;4979329;28;20486;-92
2023/08/29 12:27:25;;;;;;;1.40;0.40;;;;;;;;;;4979389;28;20054;-89
2023/08/29 12:29:53;;;;;;;0.45;0.32;;;;;;;;;;4979194;28;20105;-89
2023/08/29 12:32:25;;;;;;;1.48;0.20;;;;;;;;;;4996255;28;20050;-89
2023/08/29 12:34:52;;;;;;;1.88;0.68;;;;;;;;;;4996210;28;20091;-88
2023/08/29 12:37:19;;;;;;;2.40;0.40;;;;;;;;;;4979074;28;20065;-89
2023/08/29 12:39:47;;;;;;;0.30;0.30;;;;;;;;;;4978702;28;20454;-89
2023/08/29 12:42:14;;;;;;;0.50;0.40;;;;;;;;;;4995651;28;20395;-89
2023/08/29 12:44:42;;;;;;;0.68;0.30;;;;;;;;;;4979291;28;20051;-89
2023/08/29 12:47:09;;;;;;;0.40;0.20;;;;;;;;;;4995758;28;20054;-91
2023/08/29 12:49:36;;;;;;;0.45;0.35;;;;;;;;;;4995948;28;20046;-88
2023/08/29 12:52:04;;;;;;;0.73;0.40;;;;;;;;;;4979168;28;20121;-91
2023/08/29 12:54:33;;;;;;;3.88;0.45;;;;;;;;;;4978989;28;20136;-91
2023/08/29 12:57:00;;;;;;;3.45;0.30;;;;;;;;;;4978732;28;20057;-93
2023/08/29 12:59:28;;;;;;;1.73;0.30;;;;;;;;;;4978880;28;20553;-88
2023/08/29 13:01:55;;;;;;;0.50;0.40;;;;;;;;;;4981292;28;20495;-90
2023/08/29 13:04:22;;;;;;;7.25;0.75;;;;;;;;;;5007479;28;20053;-89
2023/08/29 13:06:50;;;;;;;3.85;0.73;;;;;;;;;;4980545;28;20430;-92
2023/08/29 13:09:17;;;;;;;0.68;0.40;;;;;;;;;;4997557;28;20046;-93
2023/08/29 13:12:03;;;;;;;2.53;0.32;;;;;;;;;;4982021;28;20050;-90
2023/08/29 13:14:30;;;;;;;1.42;0.60;;;;;;;;;;4995786;28;20073;-92
2023/08/29 13:17:05;;;;;;;1.92;0.40;;;;;;;;;;4978716;28;20047;-91
2023/08/29 13:19:33;;;;;;;0.25;0.25;;;;;;;;;;4978114;28;20097;-92
2023/08/29 13:22:04;;;;;;;1.35;0.45;;;;;;;;;;4978099;28;20050;-88
2023/08/29 13:24:31;;;;;;;0.30;0.30;;;;;;;;;;4995270;28;20046;-89
2023/08/29 13:26:59;;;;;;;0.20;0.20;;;;;;;;;;4977632;28;20120;-89
2023/08/29 13:29:26;;;;;;;3.80;0.50;;;;;;;;;;4978111;28;20491;-91
2023/08/29 13:31:54;;;;;;;19.02;2.45;;;;;;;;;;4977813;28;20050;-88
2023/08/29 13:34:21;;;;;;;5.78;0.70;;;;;;;;;;4995080;28;20050;-89
2023/08/29 13:36:49;;;;;;;2.65;0.47;;;;;;;;;;4977629;28;20046;-92
2023/08/29 13:39:16;;;;;;;1.75;0.35;;;;;;;;;;4978068;28;20050;-89
2023/08/29 13:41:44;;;;;;;0.50;0.50;;;;;;;;;;4977220;28;20081;-89
2023/08/29 13:44:11;;;;;;;0.30;0.30;;;;;;;;;;4977878;28;20050;-90
2023/08/29 13:46:39;;;;;;;6.30;1.15;;;;;;;;;;4995108;28;20050;-89
2023/08/29 13:49:09;;;;;;;0.85;0.30;;;;;;;;;;4978699;28;20053;-89
2023/08/29 13:51:36;;;;;;;0.30;0.30;;;;;;;;;;4994908;28;20050;-92
2023/08/29 13:54:04;;;;;;;2.38;0.40;;;;;;;;;;4977673;28;20093;-89
2023/08/29 13:56:31;;;;;;;0.60;0.40;;;;;;;;;;4977728;28;20061;-91
2023/08/29 13:58:58;;;;;;;1.13;0.30;;;;;;;;;;4977573;28;20505;-91
2023/08/29 14:01:26;;;;;;;0.30;0.30;;;;;;;;;;4977480;28;20047;-94
2023/08/29 14:03:53;;;;;;;0.47;0.40;;;;;;;;;;4977322;28;20085;-92
2023/08/29 14:06:21;;;;;;;0.40;0.40;;;;;;;;;;4977213;28;20129;-93
2023/08/29 14:08:49;;;;;;;1.10;0.40;;;;;;;;;;4977215;28;20389;-90
2023/08/29 14:11:16;;;;;;;2.42;0.50;;;;;;;;;;4976971;28;20050;-91
2023/08/29 14:13:43;;;;;;;2.58;0.30;;;;;;;;;;4977006;28;20458;-92
2023/08/29 14:16:10;;;;;;;1.45;0.40;;;;;;;;;;4977139;28;20046;-90
2023/08/29 14:18:41;;;;;;;0.82;0.55;;;;;;;;;;4994312;28;20405;-90
2023/08/29 14:21:09;;;;;;;2.17;0.68;;;;;;;;;;4977084;28;20050;-90
2023/08/29 14:23:37;;;;;;;2.17;0.50;;;;;;;;;;4994226;28;20050;-90
2023/08/29 14:26:08;;;;;;;1.58;0.40;;;;;;;;;;4976946;28;20046;-90
2023/08/29 14:28:38;;;;;;;0.80;0.40;;;;;;;;;;4977560;28;20042;-90
2023/08/29 14:31:05;;;;;;;0.82;0.45;;;;;;;;;;4977106;28;20054;-89
2023/08/29 14:33:32;;;;;;;1.13;0.38;;;;;;;;;;4994051;28;20081;-90
2023/08/29 14:36:03;;;;;;;1.60;0.50;;;;;;;;;;4976653;28;20113;-91
2023/08/29 14:38:31;;;;;;;1.17;0.30;;;;;;;;;;4977721;28;20531;-89
2023/08/29 14:41:11;;;;;;;0.57;0.50;;;;;;;;;;4981110;28;20554;-90